createdAt,value
2017-09-01T00:00:09.321Z,0
2017-09-01T00:00:49.931Z,0
2017-09-01T00:01:30.560Z,0
2017-09-01T00:02:11.219Z,0
2017-09-01T00:02:51.840Z,0
2017-09-01T00:03:32.490Z,0
2017-09-01T00:04:13.113Z,0
2017-09-01T00:04:53.780Z,0
2017-09-01T00:05:34.498Z,0
2017-09-01T00:06:15.125Z,0
2017-09-01T00:06:55.746Z,0
2017-09-01T00:07:36.376Z,0
2017-09-01T00:08:17.027Z,0
2017-09-01T00:08:57.647Z,0
2017-09-01T00:09:38.291Z,0
2017-09-01T00:10:18.940Z,0
2017-09-01T00:10:59.599Z,0
2017-09-01T00:11:40.266Z,0
2017-09-01T00:12:20.912Z,0
2017-09-01T00:13:01.546Z,0
2017-09-01T00:13:42.182Z,0
2017-09-01T00:14:22.832Z,0
2017-09-01T00:15:03.487Z,0
2017-09-01T00:15:44.086Z,0
2017-09-01T00:16:24.722Z,0
2017-09-01T00:17:05.383Z,0
2017-09-01T00:17:46.028Z,0
2017-09-01T00:18:26.653Z,0
2017-09-01T00:19:07.290Z,0
2017-09-01T00:19:47.897Z,0
2017-09-01T00:20:28.538Z,0
2017-09-01T00:21:09.156Z,0
2017-09-01T00:21:49.767Z,0
2017-09-01T00:22:30.515Z,0
2017-09-01T00:23:11.161Z,0
2017-09-01T00:23:51.816Z,0
2017-09-01T00:24:32.440Z,0
2017-09-01T00:25:13.077Z,0
2017-09-01T00:25:53.758Z,0
2017-09-01T00:26:34.330Z,0
2017-09-01T00:27:14.943Z,0
2017-09-01T00:27:55.584Z,0
2017-09-01T00:28:36.210Z,0
2017-09-01T00:29:16.855Z,0
2017-09-01T00:29:57.688Z,0
2017-09-01T00:30:38.297Z,0
2017-09-01T00:31:18.945Z,0
2017-09-01T00:31:59.584Z,0
2017-09-01T00:32:40.242Z,0
2017-09-01T00:33:20.872Z,0
2017-09-01T00:34:01.514Z,0
2017-09-01T00:34:42.158Z,0
2017-09-01T00:35:22.780Z,0
2017-09-01T00:36:03.432Z,0
2017-09-01T00:36:44.044Z,0
2017-09-01T00:37:24.688Z,0
2017-09-01T00:38:05.327Z,0
2017-09-01T00:38:45.944Z,0
2017-09-01T00:39:26.571Z,0
2017-09-01T00:40:07.183Z,0
2017-09-01T00:40:47.807Z,0
2017-09-01T00:41:28.466Z,0
2017-09-01T00:42:09.093Z,0
2017-09-01T00:42:49.722Z,0
2017-09-01T00:43:30.539Z,0
2017-09-01T00:44:11.415Z,0
2017-09-01T00:44:52.200Z,0
2017-09-01T00:45:33.034Z,0
2017-09-01T00:46:14.369Z,0
2017-09-01T00:46:55.242Z,0
2017-09-01T00:47:35.987Z,0
2017-09-01T00:48:16.971Z,0
2017-09-01T00:48:57.600Z,0
2017-09-01T00:49:38.257Z,0
2017-09-01T00:50:19.103Z,0
2017-09-01T00:50:59.862Z,0
2017-09-01T00:51:40.588Z,0
2017-09-01T00:52:22.238Z,0
2017-09-01T00:53:02.619Z,0
2017-09-01T00:53:43.332Z,0
2017-09-01T00:54:24.583Z,0
2017-09-01T00:55:05.348Z,0
2017-09-01T00:55:46.143Z,0
2017-09-01T00:56:27.102Z,0
2017-09-01T00:57:07.649Z,0
2017-09-01T00:57:48.463Z,0
2017-09-01T00:58:29.848Z,0
2017-09-01T00:59:11.104Z,0
2017-09-01T00:59:52.471Z,0
2017-09-01T01:00:34.059Z,0
2017-09-01T01:01:14.056Z,0
2017-09-01T01:01:55.387Z,0
2017-09-01T01:02:36.442Z,0
2017-09-01T01:03:17.694Z,0
2017-09-01T01:03:58.484Z,0
2017-09-01T01:04:39.762Z,0
2017-09-01T01:05:20.232Z,0
2017-09-01T01:06:00.873Z,0
2017-09-01T01:06:41.616Z,0
2017-09-01T01:07:22.506Z,0
2017-09-01T01:08:03.054Z,0
2017-09-01T01:08:43.905Z,0
2017-09-01T01:09:24.503Z,0
2017-09-01T01:10:05.275Z,0
2017-09-01T01:10:46.019Z,0
2017-09-01T01:11:26.862Z,0
2017-09-01T01:12:07.680Z,0
2017-09-01T01:12:48.568Z,0
2017-09-01T01:13:29.036Z,0
2017-09-01T01:14:09.751Z,0
2017-09-01T01:14:50.373Z,0
2017-09-01T01:15:31.116Z,0
2017-09-01T01:16:11.753Z,0
2017-09-01T01:16:52.476Z,0
2017-09-01T01:17:33.142Z,0
2017-09-01T01:18:13.928Z,0
2017-09-01T01:18:54.670Z,0
2017-09-01T01:19:35.357Z,0
2017-09-01T01:20:16.062Z,0
2017-09-01T01:20:56.734Z,0
2017-09-01T01:21:37.299Z,0
2017-09-01T01:22:18.063Z,0
2017-09-01T01:22:58.751Z,0
2017-09-01T01:23:39.458Z,0
2017-09-01T01:24:20.246Z,0
2017-09-01T01:25:00.719Z,0
2017-09-01T01:25:41.438Z,0
2017-09-01T01:26:22.266Z,0
2017-09-01T01:27:02.965Z,0
2017-09-01T01:27:43.664Z,0
2017-09-01T01:28:24.493Z,0
2017-09-01T01:29:08.764Z,0
2017-09-01T01:42:09.545Z,0
2017-09-01T01:42:50.343Z,0
2017-09-01T01:43:31.304Z,0
2017-09-01T01:44:12.349Z,0
2017-09-01T01:44:53.249Z,0
2017-09-01T01:45:35.046Z,0
2017-09-01T01:46:16.181Z,0
2017-09-01T01:46:57.832Z,0
2017-09-01T01:47:42.110Z,0
2017-09-01T01:48:22.892Z,0
2017-09-01T01:49:04.706Z,0
2017-09-01T01:51:25.773Z,0
2017-09-01T01:52:06.558Z,0
2017-09-01T01:52:47.322Z,0
2017-09-01T01:53:28.135Z,0
2017-09-01T01:54:09.051Z,0
2017-09-01T01:54:49.984Z,0
2017-09-01T01:55:30.518Z,0
2017-09-01T01:56:11.138Z,0
2017-09-01T01:56:52.109Z,0
2017-09-01T01:57:32.918Z,0
2017-09-01T01:58:13.425Z,0
2017-09-01T01:58:54.859Z,0
2017-09-01T01:59:35.701Z,0
2017-09-01T02:00:16.602Z,0
2017-09-01T02:00:57.420Z,0
2017-09-01T02:01:38.056Z,0
2017-09-01T02:02:18.934Z,0
2017-09-01T02:03:00.003Z,0
2017-09-01T02:03:40.820Z,0
2017-09-01T02:04:22.106Z,0
2017-09-01T02:05:02.901Z,0
2017-09-01T02:05:43.741Z,0
2017-09-01T02:06:24.468Z,0
2017-09-01T02:07:05.385Z,0
2017-09-01T02:07:46.000Z,0
2017-09-01T02:08:27.000Z,0
2017-09-01T02:09:08.078Z,0
2017-09-01T02:09:48.755Z,0
2017-09-01T02:12:09.798Z,0
2017-09-01T02:12:49.643Z,0
2017-09-01T02:13:30.478Z,0
2017-09-01T02:14:11.129Z,0
2017-09-01T02:14:51.806Z,0
2017-09-01T02:15:32.501Z,0
2017-09-01T02:16:13.065Z,0
2017-09-01T02:16:53.826Z,0
2017-09-01T02:17:34.408Z,0
2017-09-01T02:18:15.089Z,0
2017-09-01T02:18:55.776Z,0
2017-09-01T02:19:36.406Z,0
2017-09-01T02:20:17.031Z,0
2017-09-01T02:20:57.696Z,0
2017-09-01T02:21:38.365Z,0
2017-09-01T02:22:19.004Z,0
2017-09-01T02:22:59.651Z,0
2017-09-01T02:23:40.377Z,0
2017-09-01T02:24:21.110Z,0
2017-09-01T02:25:01.868Z,0
2017-09-01T02:25:42.517Z,0
2017-09-01T02:26:23.234Z,0
2017-09-01T02:27:03.953Z,0
2017-09-01T02:27:44.770Z,0
2017-09-01T02:28:25.426Z,0
2017-09-01T02:29:06.058Z,0
2017-09-01T02:29:46.709Z,0
2017-09-01T02:30:27.377Z,0
2017-09-01T02:31:08.131Z,0
2017-09-01T02:31:48.740Z,0
2017-09-01T02:32:29.405Z,0
2017-09-01T02:33:10.074Z,0
2017-09-01T02:33:50.837Z,0
2017-09-01T02:34:31.633Z,0
2017-09-01T02:35:12.258Z,0
2017-09-01T02:35:53.057Z,0
2017-09-01T02:36:33.601Z,0
2017-09-01T02:37:14.191Z,0
2017-09-01T02:37:54.970Z,0
2017-09-01T02:38:35.495Z,0
2017-09-01T02:39:16.132Z,0
2017-09-01T02:39:56.830Z,0
2017-09-01T02:40:37.577Z,0
2017-09-01T02:41:18.250Z,0
2017-09-01T02:41:58.911Z,0
2017-09-01T02:42:39.649Z,0
2017-09-01T02:43:20.572Z,0
2017-09-01T02:44:00.991Z,0
2017-09-01T02:44:41.617Z,0
2017-09-01T02:45:22.549Z,0
2017-09-01T02:46:03.164Z,0
2017-09-01T02:46:43.832Z,0
2017-09-01T02:47:24.441Z,0
2017-09-01T02:48:05.139Z,0
2017-09-01T02:48:45.816Z,0
2017-09-01T02:49:26.471Z,0
2017-09-01T02:50:07.131Z,0
2017-09-01T02:50:47.709Z,0
2017-09-01T02:51:28.525Z,0
2017-09-01T02:52:09.153Z,0
2017-09-01T02:52:49.884Z,0
2017-09-01T02:53:30.482Z,0
2017-09-01T02:54:11.147Z,0
2017-09-01T02:54:51.849Z,0
2017-09-01T02:55:32.551Z,0
2017-09-01T02:56:13.257Z,0
2017-09-01T02:56:54.201Z,0
2017-09-01T02:57:34.995Z,0
2017-09-01T02:58:16.673Z,0
2017-09-01T02:58:57.734Z,0
2017-09-01T02:59:40.650Z,0
2017-09-01T03:06:20.244Z,0
2017-09-01T03:07:00.960Z,0
2017-09-01T03:07:41.624Z,0
2017-09-01T03:08:22.321Z,0
2017-09-01T03:09:02.919Z,0
2017-09-01T03:09:43.575Z,0
2017-09-01T03:10:24.348Z,0
2017-09-01T03:11:04.866Z,0
2017-09-01T03:11:45.650Z,0
2017-09-01T03:12:26.192Z,0
2017-09-01T03:13:06.919Z,0
2017-09-01T03:13:47.616Z,0
2017-09-01T03:14:28.274Z,0
2017-09-01T03:15:08.895Z,0
2017-09-01T03:15:49.566Z,0
2017-09-01T03:16:30.296Z,0
2017-09-01T03:17:10.945Z,0
2017-09-01T03:17:51.656Z,0
2017-09-01T03:18:32.233Z,0
2017-09-01T03:19:13.072Z,0
2017-09-01T03:19:53.661Z,0
2017-09-01T03:20:34.663Z,0
2017-09-01T03:21:15.463Z,0
2017-09-01T03:21:56.282Z,0
2017-09-01T03:22:36.861Z,0
2017-09-01T03:23:17.503Z,0
2017-09-01T03:23:58.138Z,0
2017-09-01T03:24:38.775Z,0
2017-09-01T03:25:19.382Z,0
2017-09-01T03:26:00.019Z,0
2017-09-01T03:26:40.668Z,0
2017-09-01T03:27:21.299Z,0
2017-09-01T03:28:01.951Z,0
2017-09-01T03:28:42.570Z,0
2017-09-01T03:29:23.185Z,0
2017-09-01T03:30:03.810Z,0
2017-09-01T03:30:44.467Z,0
2017-09-01T03:31:25.108Z,0
2017-09-01T03:32:05.687Z,0
2017-09-01T03:32:46.336Z,0
2017-09-01T03:33:26.981Z,0
2017-09-01T03:34:07.607Z,0
2017-09-01T03:34:48.245Z,0
2017-09-01T03:35:28.867Z,0
2017-09-01T03:36:09.502Z,0
2017-09-01T03:36:50.111Z,0
2017-09-01T03:37:30.773Z,0
2017-09-01T03:38:11.377Z,0
2017-09-01T03:38:51.995Z,0
2017-09-01T03:39:32.619Z,0
2017-09-01T03:40:13.275Z,0
2017-09-01T03:40:53.893Z,0
2017-09-01T03:41:34.519Z,0
2017-09-01T03:42:15.162Z,0
2017-09-01T03:42:55.860Z,0
2017-09-01T03:43:36.466Z,0
2017-09-01T03:44:17.109Z,0
2017-09-01T03:44:57.764Z,0
2017-09-01T03:45:38.407Z,0
2017-09-01T03:46:19.033Z,0
2017-09-01T03:46:59.639Z,0
2017-09-01T03:47:40.267Z,0
2017-09-01T03:48:20.943Z,0
2017-09-01T03:49:01.711Z,0
2017-09-01T03:49:42.313Z,0
2017-09-01T03:50:22.927Z,0
2017-09-01T03:51:03.548Z,0
2017-09-01T03:51:44.170Z,0
2017-09-01T03:52:24.786Z,0
2017-09-01T03:53:05.421Z,0
2017-09-01T03:53:46.065Z,0
2017-09-01T03:54:26.698Z,0
2017-09-01T03:55:07.351Z,0
2017-09-01T03:55:48.002Z,0
2017-09-01T03:56:28.596Z,0
2017-09-01T03:57:09.228Z,0
2017-09-01T03:57:49.869Z,0
2017-09-01T03:58:30.464Z,0
2017-09-01T03:59:11.116Z,0
2017-09-01T03:59:51.732Z,0
2017-09-01T04:00:32.355Z,0
2017-09-01T04:01:12.976Z,0
2017-09-01T04:01:53.595Z,0
2017-09-01T04:02:34.229Z,0
2017-09-01T04:03:14.859Z,0
2017-09-01T04:03:55.605Z,0
2017-09-01T04:04:36.305Z,0
2017-09-01T04:05:16.915Z,0
2017-09-01T04:05:57.553Z,0
2017-09-01T04:06:38.209Z,0
2017-09-01T04:07:18.822Z,0
2017-09-01T04:07:59.448Z,0
2017-09-01T04:08:40.061Z,0
2017-09-01T04:09:20.701Z,0
2017-09-01T04:10:01.352Z,0
2017-09-01T04:10:41.972Z,0
2017-09-01T04:11:22.617Z,0
2017-09-01T04:12:03.253Z,0
2017-09-01T04:12:43.868Z,0
2017-09-01T04:13:24.479Z,0
2017-09-01T04:14:05.111Z,0
2017-09-01T04:14:45.705Z,0
2017-09-01T04:15:26.322Z,0
2017-09-01T04:16:06.970Z,0
2017-09-01T04:16:47.596Z,0
2017-09-01T04:17:28.210Z,0
2017-09-01T04:18:08.853Z,0
2017-09-01T04:18:49.532Z,0
2017-09-01T04:19:30.168Z,0
2017-09-01T04:20:10.810Z,0
2017-09-01T04:20:51.447Z,0
2017-09-01T04:21:32.065Z,0
2017-09-01T04:22:12.700Z,0
2017-09-01T04:22:53.332Z,0
2017-09-01T04:23:33.973Z,0
2017-09-01T04:24:14.617Z,0
2017-09-01T04:24:55.282Z,0
2017-09-01T04:25:35.923Z,0
2017-09-01T04:26:16.551Z,0
2017-09-01T04:26:57.141Z,0
2017-09-01T04:27:37.842Z,0
2017-09-01T04:28:18.473Z,0
2017-09-01T04:28:59.087Z,0
2017-09-01T04:29:39.721Z,0
2017-09-01T04:30:20.372Z,0
2017-09-01T04:31:01.022Z,0
2017-09-01T04:31:41.637Z,0
2017-09-01T04:32:22.321Z,0
2017-09-01T04:33:02.910Z,0
2017-09-01T04:33:43.556Z,0
2017-09-01T04:34:24.178Z,0
2017-09-01T04:35:04.819Z,0
2017-09-01T04:35:45.455Z,0
2017-09-01T04:36:26.075Z,0
2017-09-01T04:37:06.709Z,0
2017-09-01T04:37:47.315Z,0
2017-09-01T04:38:27.978Z,0
2017-09-01T04:39:08.594Z,0
2017-09-01T04:39:49.230Z,0
2017-09-01T04:40:29.856Z,0
2017-09-01T04:41:10.486Z,0
2017-09-01T04:41:51.160Z,0
2017-09-01T04:42:31.797Z,0
2017-09-01T04:43:12.460Z,0
2017-09-01T04:43:53.147Z,0
2017-09-01T04:44:33.774Z,0
2017-09-01T04:45:14.413Z,0
2017-09-01T04:45:55.063Z,0
2017-09-01T04:46:35.683Z,0
2017-09-01T04:47:16.272Z,0
2017-09-01T04:47:56.909Z,0
2017-09-01T04:48:37.541Z,0
2017-09-01T04:49:18.185Z,0
2017-09-01T04:49:58.832Z,0
2017-09-01T04:50:39.464Z,0
2017-09-01T04:51:20.140Z,0
2017-09-01T04:52:00.781Z,0
2017-09-01T04:52:41.369Z,0
2017-09-01T04:53:21.986Z,0
2017-09-01T04:54:02.636Z,0
2017-09-01T04:54:43.295Z,0
2017-09-01T04:55:23.911Z,0
2017-09-01T04:56:04.611Z,0
2017-09-01T04:56:45.267Z,0
2017-09-01T04:57:25.909Z,0
2017-09-01T04:58:06.544Z,5
2017-09-01T04:58:47.165Z,5
2017-09-01T04:59:27.824Z,5
2017-09-01T05:00:08.543Z,5
2017-09-01T05:00:49.184Z,5
2017-09-01T05:01:29.832Z,5
2017-09-01T05:02:10.489Z,5
2017-09-01T05:02:51.145Z,5
2017-09-01T05:03:31.769Z,5
2017-09-01T05:04:12.400Z,5
2017-09-01T05:04:53.005Z,5
2017-09-01T05:05:33.654Z,5
2017-09-01T05:06:14.255Z,0
2017-09-01T05:06:54.890Z,0
2017-09-01T05:07:36.981Z,0
2017-09-01T05:08:17.619Z,0
2017-09-01T05:08:58.259Z,0
2017-09-01T05:09:38.921Z,5
2017-09-01T05:10:19.526Z,5
2017-09-01T05:11:00.172Z,5
2017-09-01T05:11:40.782Z,5
2017-09-01T05:12:21.428Z,5
2017-09-01T05:13:02.064Z,5
2017-09-01T05:13:42.772Z,5
2017-09-01T05:14:23.431Z,5
2017-09-01T05:15:04.059Z,10
2017-09-01T05:15:44.678Z,10
2017-09-01T05:16:25.314Z,10
2017-09-01T05:17:06.046Z,10
2017-09-01T05:17:46.583Z,10
2017-09-01T05:18:27.396Z,10
2017-09-01T05:19:08.066Z,10
2017-09-01T05:19:48.828Z,10
2017-09-01T05:20:29.563Z,10
2017-09-01T05:21:10.289Z,10
2017-09-01T05:21:50.886Z,10
2017-09-01T05:22:31.519Z,10
2017-09-01T05:23:12.195Z,10
2017-09-01T05:23:52.867Z,10
2017-09-01T05:24:33.476Z,15
2017-09-01T05:25:14.116Z,15
2017-09-01T05:25:55.510Z,15
2017-09-01T05:26:35.762Z,15
2017-09-01T05:27:16.437Z,15
2017-09-01T05:27:57.066Z,15
2017-09-01T05:28:37.696Z,20
2017-09-01T05:29:18.359Z,20
2017-09-01T05:29:58.971Z,20
2017-09-01T05:30:39.630Z,20
2017-09-01T05:31:20.268Z,20
2017-09-01T05:32:00.898Z,20
2017-09-01T05:32:41.521Z,20
2017-09-01T05:33:22.171Z,20
2017-09-01T05:34:02.809Z,25
2017-09-01T05:34:43.455Z,25
2017-09-01T05:35:24.229Z,25
2017-09-01T05:36:04.935Z,25
2017-09-01T05:36:45.570Z,25
2017-09-01T05:37:26.214Z,25
2017-09-01T05:38:06.866Z,25
2017-09-01T05:38:47.550Z,25
2017-09-01T05:39:28.202Z,25
2017-09-01T05:40:08.842Z,25
2017-09-01T05:40:49.577Z,25
2017-09-01T05:41:30.424Z,25
2017-09-01T05:42:11.078Z,25
2017-09-01T05:42:51.716Z,30
2017-09-01T05:43:32.402Z,30
2017-09-01T05:44:13.026Z,30
2017-09-01T05:44:53.656Z,30
2017-09-01T05:45:34.301Z,30
2017-09-01T05:46:15.060Z,30
2017-09-01T05:46:55.685Z,30
2017-09-01T05:47:36.392Z,30
2017-09-01T05:48:17.078Z,30
2017-09-01T05:48:57.728Z,30
2017-09-01T05:49:38.388Z,30
2017-09-01T05:50:19.039Z,25
2017-09-01T05:50:59.673Z,25
2017-09-01T05:51:40.330Z,25
2017-09-01T05:52:20.968Z,25
2017-09-01T05:53:01.633Z,25
2017-09-01T05:53:42.284Z,25
2017-09-01T05:54:22.942Z,25
2017-09-01T05:55:03.596Z,25
2017-09-01T05:55:44.245Z,30
2017-09-01T05:56:24.932Z,30
2017-09-01T05:57:05.536Z,30
2017-09-01T05:57:46.188Z,30
2017-09-01T05:58:26.809Z,30
2017-09-01T05:59:07.592Z,30
2017-09-01T05:59:48.263Z,30
2017-09-01T06:00:28.895Z,30
2017-09-01T06:01:09.494Z,30
2017-09-01T06:01:50.130Z,30
2017-09-01T06:02:30.790Z,30
2017-09-01T06:03:11.402Z,30
2017-09-01T06:03:52.099Z,30
2017-09-01T06:04:32.727Z,30
2017-09-01T06:05:13.384Z,30
2017-09-01T06:05:54.085Z,30
2017-09-01T06:06:34.690Z,30
2017-09-01T06:07:15.340Z,30
2017-09-01T06:07:55.995Z,30
2017-09-01T06:08:36.647Z,30
2017-09-01T06:09:17.333Z,30
2017-09-01T06:09:57.984Z,30
2017-09-01T06:10:38.605Z,35
2017-09-01T06:11:19.248Z,35
2017-09-01T06:11:59.924Z,35
2017-09-01T06:12:40.580Z,35
2017-09-01T06:13:21.278Z,35
2017-09-01T06:14:01.924Z,35
2017-09-01T06:14:42.596Z,40
2017-09-01T06:15:23.229Z,40
2017-09-01T06:16:03.872Z,40
2017-09-01T06:16:44.530Z,45
2017-09-01T06:17:25.164Z,45
2017-09-01T06:18:05.808Z,45
2017-09-01T06:18:46.430Z,45
2017-09-01T06:19:27.069Z,50
2017-09-01T06:20:07.695Z,45
2017-09-01T06:20:49.267Z,50
2017-09-01T06:21:29.818Z,50
2017-09-01T06:22:10.515Z,50
2017-09-01T06:22:51.153Z,50
2017-09-01T06:23:31.792Z,50
2017-09-01T06:24:12.451Z,50
2017-09-01T06:24:53.109Z,50
2017-09-01T06:25:33.775Z,50
2017-09-01T06:26:14.440Z,50
2017-09-01T06:26:55.091Z,55
2017-09-01T06:27:35.723Z,55
2017-09-01T06:28:16.373Z,55
2017-09-01T06:28:57.032Z,55
2017-09-01T06:29:37.710Z,60
2017-09-01T06:30:18.317Z,55
2017-09-01T06:30:59.035Z,55
2017-09-01T06:31:39.727Z,55
2017-09-01T06:32:20.382Z,55
2017-09-01T06:33:01.060Z,50
2017-09-01T06:33:41.710Z,50
2017-09-01T06:34:22.312Z,45
2017-09-01T06:35:02.943Z,40
2017-09-01T06:35:43.573Z,40
2017-09-01T06:36:24.240Z,40
2017-09-01T06:37:04.874Z,40
2017-09-01T06:37:45.506Z,40
2017-09-01T06:38:26.140Z,40
2017-09-01T06:39:06.771Z,40
2017-09-01T06:39:47.441Z,45
2017-09-01T06:40:28.043Z,45
2017-09-01T06:41:08.643Z,45
2017-09-01T06:41:49.312Z,45
2017-09-01T06:42:29.954Z,45
2017-09-01T06:43:10.645Z,50
2017-09-01T06:43:51.294Z,50
2017-09-01T06:44:32.001Z,55
2017-09-01T06:45:12.605Z,55
2017-09-01T06:45:53.277Z,60
2017-09-01T06:46:33.938Z,60
2017-09-01T06:47:14.571Z,60
2017-09-01T06:47:55.253Z,60
2017-09-01T06:48:35.894Z,60
2017-09-01T06:49:16.491Z,60
2017-09-01T06:49:57.136Z,60
2017-09-01T06:50:37.765Z,60
2017-09-01T06:51:18.395Z,55
2017-09-01T06:51:59.046Z,55
2017-09-01T06:52:39.725Z,55
2017-09-01T06:53:20.370Z,55
2017-09-01T06:54:01.022Z,55
2017-09-01T06:54:41.675Z,55
2017-09-01T06:55:22.298Z,55
2017-09-01T06:56:02.957Z,55
2017-09-01T06:56:43.630Z,55
2017-09-01T06:57:24.213Z,55
2017-09-01T06:58:04.930Z,55
2017-09-01T06:58:45.606Z,60
2017-09-01T06:59:26.261Z,60
2017-09-01T07:00:06.878Z,60
2017-09-01T07:00:47.519Z,60
2017-09-01T07:01:28.164Z,60
2017-09-01T07:02:08.808Z,60
2017-09-01T07:02:49.434Z,60
2017-09-01T07:03:30.058Z,60
2017-09-01T07:04:10.747Z,65
2017-09-01T07:04:51.376Z,65
2017-09-01T07:05:31.997Z,65
2017-09-01T07:06:12.628Z,70
2017-09-01T07:06:53.229Z,70
2017-09-01T07:07:33.894Z,70
2017-09-01T07:08:14.684Z,75
2017-09-01T07:08:55.308Z,75
2017-09-01T07:09:35.955Z,80
2017-09-01T07:10:16.641Z,85
2017-09-01T07:10:57.334Z,85
2017-09-01T07:11:37.939Z,90
2017-09-01T07:12:18.834Z,95
2017-09-01T07:12:59.472Z,95
2017-09-01T07:13:40.076Z,95
2017-09-01T07:14:20.720Z,100
2017-09-01T07:15:01.361Z,100
2017-09-01T07:15:41.977Z,100
2017-09-01T07:16:22.614Z,100
2017-09-01T07:17:03.223Z,100
2017-09-01T07:17:43.815Z,105
2017-09-01T07:18:24.460Z,105
2017-09-01T07:19:05.120Z,105
2017-09-01T07:19:45.736Z,100
2017-09-01T07:20:26.376Z,105
2017-09-01T07:21:07.023Z,100
2017-09-01T07:21:47.717Z,100
2017-09-01T07:22:28.344Z,105
2017-09-01T07:23:08.974Z,105
2017-09-01T07:23:49.607Z,100
2017-09-01T07:24:30.254Z,105
2017-09-01T07:25:10.892Z,105
2017-09-01T07:25:51.535Z,105
2017-09-01T07:26:32.316Z,105
2017-09-01T07:27:12.960Z,105
2017-09-01T07:27:53.758Z,105
2017-09-01T07:28:34.305Z,110
2017-09-01T07:29:14.957Z,110
2017-09-01T07:29:55.591Z,110
2017-09-01T07:30:36.231Z,110
2017-09-01T07:31:16.852Z,115
2017-09-01T07:31:57.491Z,115
2017-09-01T07:32:38.143Z,115
2017-09-01T07:33:18.781Z,115
2017-09-01T07:33:59.447Z,115
2017-09-01T07:34:40.080Z,115
2017-09-01T07:35:20.752Z,115
2017-09-01T07:36:01.374Z,120
2017-09-01T07:36:42.002Z,120
2017-09-01T07:37:22.633Z,120
2017-09-01T07:38:03.264Z,120
2017-09-01T07:38:44.023Z,120
2017-09-01T07:39:24.752Z,120
2017-09-01T07:40:05.338Z,120
2017-09-01T07:40:46.004Z,120
2017-09-01T07:41:26.585Z,120
2017-09-01T07:42:07.214Z,120
2017-09-01T07:42:47.853Z,120
2017-09-01T07:43:28.505Z,120
2017-09-01T07:44:09.141Z,115
2017-09-01T07:44:49.815Z,115
2017-09-01T07:45:30.443Z,110
2017-09-01T07:46:11.105Z,110
2017-09-01T07:46:51.695Z,110
2017-09-01T07:47:32.380Z,110
2017-09-01T07:48:13.005Z,110
2017-09-01T07:48:53.681Z,110
2017-09-01T07:49:34.327Z,110
2017-09-01T07:50:14.993Z,115
2017-09-01T07:50:55.633Z,115
2017-09-01T07:51:36.305Z,115
2017-09-01T07:52:16.932Z,115
2017-09-01T07:52:57.523Z,115
2017-09-01T07:53:38.401Z,115
2017-09-01T07:54:18.908Z,115
2017-09-01T07:54:59.585Z,115
2017-09-01T07:55:40.241Z,115
2017-09-01T07:56:20.855Z,115
2017-09-01T07:57:01.492Z,115
2017-09-01T07:57:42.116Z,120
2017-09-01T07:58:22.744Z,120
2017-09-01T07:59:03.357Z,120
2017-09-01T07:59:44.010Z,120
2017-09-01T08:00:24.812Z,125
2017-09-01T08:01:05.428Z,125
2017-09-01T08:01:46.161Z,120
2017-09-01T08:02:26.771Z,125
2017-09-01T08:03:07.387Z,125
2017-09-01T08:03:48.035Z,130
2017-09-01T08:04:28.675Z,130
2017-09-01T08:05:09.275Z,135
2017-09-01T08:05:49.933Z,135
2017-09-01T08:06:30.549Z,130
2017-09-01T08:07:11.192Z,130
2017-09-01T08:07:51.870Z,130
2017-09-01T08:08:32.536Z,125
2017-09-01T08:09:13.167Z,125
2017-09-01T08:09:53.775Z,125
2017-09-01T08:10:34.388Z,125
2017-09-01T08:11:15.030Z,120
2017-09-01T08:11:55.665Z,120
2017-09-01T08:12:36.286Z,120
2017-09-01T08:13:16.915Z,120
2017-09-01T08:13:57.535Z,120
2017-09-01T08:14:38.163Z,125
2017-09-01T08:15:18.808Z,120
2017-09-01T08:15:59.407Z,120
2017-09-01T08:16:40.065Z,125
2017-09-01T08:17:20.752Z,125
2017-09-01T08:18:01.375Z,130
2017-09-01T08:18:41.984Z,130
2017-09-01T08:19:22.672Z,130
2017-09-01T08:20:03.349Z,130
2017-09-01T08:20:44.047Z,130
2017-09-01T08:21:24.644Z,135
2017-09-01T08:22:05.342Z,135
2017-09-01T08:22:46.143Z,135
2017-09-01T08:23:26.775Z,135
2017-09-01T08:24:07.396Z,135
2017-09-01T08:24:47.999Z,135
2017-09-01T08:25:28.652Z,135
2017-09-01T08:26:09.270Z,135
2017-09-01T08:26:49.921Z,140
2017-09-01T08:27:30.642Z,140
2017-09-01T08:28:11.281Z,140
2017-09-01T08:28:51.924Z,140
2017-09-01T08:29:32.579Z,140
2017-09-01T08:30:13.200Z,145
2017-09-01T08:30:53.885Z,145
2017-09-01T08:31:34.548Z,145
2017-09-01T08:32:15.250Z,150
2017-09-01T08:32:55.836Z,145
2017-09-01T08:33:36.509Z,155
2017-09-01T08:34:17.159Z,150
2017-09-01T08:34:57.798Z,155
2017-09-01T08:35:38.460Z,150
2017-09-01T08:36:19.110Z,155
2017-09-01T08:36:59.750Z,155
2017-09-01T08:37:40.398Z,150
2017-09-01T08:38:21.052Z,150
2017-09-01T08:39:01.710Z,155
2017-09-01T08:39:42.444Z,150
2017-09-01T08:40:23.135Z,155
2017-09-01T08:41:03.778Z,150
2017-09-01T08:41:44.418Z,155
2017-09-01T08:42:25.072Z,155
2017-09-01T08:43:05.725Z,150
2017-09-01T08:43:46.329Z,155
2017-09-01T08:44:27.012Z,150
2017-09-01T08:45:07.618Z,150
2017-09-01T08:45:48.231Z,150
2017-09-01T08:46:28.875Z,155
2017-09-01T08:47:09.505Z,155
2017-09-01T08:47:50.292Z,155
2017-09-01T08:48:30.918Z,155
2017-09-01T08:49:11.549Z,160
2017-09-01T08:49:52.216Z,155
2017-09-01T08:50:32.872Z,155
2017-09-01T08:51:13.624Z,155
2017-09-01T08:51:54.284Z,155
2017-09-01T08:52:34.931Z,155
2017-09-01T08:53:15.581Z,155
2017-09-01T08:53:56.207Z,155
2017-09-01T08:54:36.906Z,155
2017-09-01T08:55:17.565Z,155
2017-09-01T08:55:58.184Z,155
2017-09-01T08:56:38.873Z,155
2017-09-01T08:57:19.487Z,155
2017-09-01T08:58:00.151Z,155
2017-09-01T08:58:40.858Z,160
2017-09-01T08:59:21.468Z,160
2017-09-01T09:00:02.154Z,165
2017-09-01T09:00:42.815Z,160
2017-09-01T09:01:23.461Z,160
2017-09-01T09:02:04.117Z,160
2017-09-01T09:02:44.735Z,160
2017-09-01T09:03:25.385Z,165
2017-09-01T09:04:06.031Z,160
2017-09-01T09:04:46.655Z,155
2017-09-01T09:05:27.302Z,160
2017-09-01T09:06:07.944Z,155
2017-09-01T09:06:48.670Z,160
2017-09-01T09:07:29.332Z,160
2017-09-01T09:08:09.912Z,165
2017-09-01T09:08:50.437Z,165
2017-09-01T09:09:30.986Z,170
2017-09-01T09:10:11.519Z,165
2017-09-01T09:10:52.105Z,155
2017-09-01T09:11:32.617Z,150
2017-09-01T09:12:13.210Z,145
2017-09-01T09:12:53.842Z,150
2017-09-01T09:13:34.435Z,140
2017-09-01T09:14:14.971Z,140
2017-09-01T09:14:55.488Z,135
2017-09-01T09:15:36.024Z,135
2017-09-01T09:16:16.584Z,135
2017-09-01T09:16:57.150Z,135
2017-09-01T09:17:37.743Z,140
2017-09-01T09:18:18.262Z,145
2017-09-01T09:18:58.855Z,150
2017-09-01T09:19:39.398Z,150
2017-09-01T09:20:19.922Z,150
2017-09-01T09:21:00.529Z,155
2017-09-01T09:21:41.164Z,155
2017-09-01T09:22:21.696Z,155
2017-09-01T09:23:02.258Z,160
2017-09-01T09:23:42.762Z,165
2017-09-01T09:24:23.327Z,165
2017-09-01T09:25:03.913Z,170
2017-09-01T09:25:44.469Z,170
2017-09-01T09:26:25.063Z,175
2017-09-01T09:27:05.614Z,180
2017-09-01T09:27:46.155Z,190
2017-09-01T09:28:26.728Z,175
2017-09-01T09:29:07.274Z,175
2017-09-01T09:29:47.769Z,175
2017-09-01T09:30:28.678Z,175
2017-09-01T09:31:09.686Z,170
2017-09-01T09:31:50.766Z,165
2017-09-01T09:32:31.317Z,165
2017-09-01T09:33:11.864Z,165
2017-09-01T09:33:52.413Z,170
2017-09-01T09:34:32.983Z,170
2017-09-01T09:35:13.544Z,165
2017-09-01T09:35:54.181Z,175
2017-09-01T09:36:34.715Z,170
2017-09-01T09:37:15.270Z,170
2017-09-01T09:37:55.825Z,165
2017-09-01T09:38:36.365Z,170
2017-09-01T09:39:16.884Z,180
2017-09-01T09:39:57.505Z,180
2017-09-01T09:40:37.988Z,170
2017-09-01T09:41:18.540Z,175
2017-09-01T09:41:59.071Z,160
2017-09-01T09:42:39.608Z,155
2017-09-01T09:43:20.145Z,155
2017-09-01T09:44:00.704Z,160
2017-09-01T09:44:41.306Z,175
2017-09-01T09:45:21.812Z,170
2017-09-01T09:46:02.385Z,160
2017-09-01T09:46:42.917Z,160
2017-09-01T09:47:23.441Z,165
2017-09-01T09:48:04.013Z,165
2017-09-01T09:48:44.929Z,165
2017-09-01T09:49:25.619Z,170
2017-09-01T09:50:06.316Z,170
2017-09-01T09:50:46.868Z,170
2017-09-01T09:51:27.411Z,165
2017-09-01T09:52:07.936Z,160
2017-09-01T09:52:48.489Z,155
2017-09-01T09:53:29.042Z,155
2017-09-01T09:54:09.603Z,155
2017-09-01T09:54:50.222Z,155
2017-09-01T09:55:30.757Z,155
2017-09-01T09:56:11.258Z,155
2017-09-01T09:56:51.871Z,150
2017-09-01T09:57:32.442Z,150
2017-09-01T09:58:12.983Z,145
2017-09-01T09:58:53.578Z,150
2017-09-01T09:59:34.095Z,150
2017-09-01T10:00:14.603Z,150
2017-09-01T10:00:55.117Z,150
2017-09-01T10:01:35.721Z,135
2017-09-01T10:02:16.243Z,140
2017-09-01T10:02:56.778Z,135
2017-09-01T10:03:37.350Z,130
2017-09-01T10:04:17.916Z,125
2017-09-01T10:04:58.451Z,120
2017-09-01T10:05:39.026Z,120